EZY207Q EGAA-EGPH
Flight info
| Callsign | EZY207Q |
|---|---|
| Flight time | 0h 32m |
| Altitude | 19000 |
| Route | BLACA P600 TUNSO |
| Aircraft | A20N/M-SDE2E3FGHIRWXY/LB1 |
Departure
| Time | 2026-04-20 20:42 |
|---|---|
| Airport | Belfast International Airport (EGAA) |
Arrival
| Time | 2026-04-20 21:14 |
|---|---|
| Airport | Edinburgh Airport (EGPH) |
| Time | Latitude | Longitude | Altitude | Speed | Heading |
|---|---|---|---|---|---|
| 2026-04-20 20:21 | 54.66071 | -6.21550 | 278 ft | 0 kts | 335° |
| 2026-04-20 20:35 | 54.66063 | -6.21539 | 278 ft | 2 kts | 307° |
| 2026-04-20 20:35 | 54.66054 | -6.21518 | 278 ft | 2 kts | 301° |
| 2026-04-20 20:36 | 54.66047 | -6.21496 | 278 ft | 1 kts | 300° |
| 2026-04-20 20:36 | 54.66043 | -6.21483 | 278 ft | 1 kts | 330° |
| 2026-04-20 20:36 | 54.66030 | -6.21471 | 278 ft | 2 kts | 317° |
| 2026-04-20 20:36 | 54.66019 | -6.21453 | 278 ft | 2 kts | 311° |
| 2026-04-20 20:37 | 54.66010 | -6.21432 | 278 ft | 2 kts | 300° |
| 2026-04-20 20:37 | 54.66004 | -6.21409 | 278 ft | 2 kts | 290° |
| 2026-04-20 20:37 | 54.66000 | -6.21384 | 278 ft | 2 kts | 280° |
| 2026-04-20 20:37 | 54.65998 | -6.21358 | 278 ft | 2 kts | 270° |
| 2026-04-20 20:38 | 54.65999 | -6.21333 | 278 ft | 2 kts | 260° |
| 2026-04-20 20:38 | 54.66003 | -6.21307 | 278 ft | 2 kts | 250° |
| 2026-04-20 20:38 | 54.66006 | -6.21295 | 278 ft | 1 kts | 243° |
| 2026-04-20 20:38 | 54.66007 | -6.21291 | 278 ft | 0 kts | 244° |
| 2026-04-20 20:40 | 54.65999 | -6.21324 | 278 ft | 9 kts | 246° |
| 2026-04-20 20:40 | 54.65946 | -6.21381 | 278 ft | 10 kts | 172° |
| 2026-04-20 20:40 | 54.65875 | -6.21330 | 278 ft | 11 kts | 155° |
| 2026-04-20 20:40 | 54.65834 | -6.21314 | 278 ft | 2 kts | 147° |
| 2026-04-20 20:41 | 54.65828 | -6.21275 | 278 ft | 3 kts | 71° |
| 2026-04-20 20:41 | 54.65844 | -6.21221 | 278 ft | 29 kts | 64° |
| 2026-04-20 20:41 | 54.66064 | -6.20410 | 279 ft | 114 kts | 65° |
| 2026-04-20 20:41 | 54.66479 | -6.18972 | 645 ft | 142 kts | 60° |
| 2026-04-20 20:42 | 54.66942 | -6.17544 | 1437 ft | 141 kts | 67° |
| 2026-04-20 20:42 | 54.67297 | -6.16050 | 2315 ft | 135 kts | 72° |
| 2026-04-20 20:42 | 54.67616 | -6.14454 | 2839 ft | 149 kts | 73° |
| 2026-04-20 20:42 | 54.67968 | -6.12675 | 3322 ft | 168 kts | 72° |
| 2026-04-20 20:43 | 54.68376 | -6.10675 | 3861 ft | 186 kts | 72° |
| 2026-04-20 20:43 | 54.68827 | -6.08513 | 4409 ft | 203 kts | 72° |
| 2026-04-20 20:43 | 54.69334 | -6.06115 | 4915 ft | 225 kts | 71° |
| 2026-04-20 20:43 | 54.69880 | -6.03560 | 5738 ft | 233 kts | 71° |
| 2026-04-20 20:44 | 54.70445 | -6.00930 | 6678 ft | 236 kts | 71° |
| 2026-04-20 20:44 | 54.71009 | -5.98298 | 7570 ft | 240 kts | 71° |
| 2026-04-20 20:44 | 54.71589 | -5.95593 | 8474 ft | 243 kts | 71° |
| 2026-04-20 20:44 | 54.72173 | -5.92866 | 9363 ft | 246 kts | 71° |
| 2026-04-20 20:45 | 54.72766 | -5.90094 | 10197 ft | 251 kts | 71° |
| 2026-04-20 20:45 | 54.73369 | -5.87271 | 11038 ft | 254 kts | 71° |
| 2026-04-20 20:45 | 54.73981 | -5.84399 | 11875 ft | 257 kts | 70° |
| 2026-04-20 20:45 | 54.74600 | -5.81492 | 12511 ft | 268 kts | 70° |
| 2026-04-20 20:46 | 54.75264 | -5.78376 | 12968 ft | 286 kts | 70° |
| 2026-04-20 20:46 | 54.75973 | -5.75040 | 13400 ft | 304 kts | 70° |
| 2026-04-20 20:46 | 54.76719 | -5.71522 | 13886 ft | 319 kts | 70° |
| 2026-04-20 20:46 | 54.77487 | -5.67896 | 14628 ft | 326 kts | 70° |
| 2026-04-20 20:47 | 54.78265 | -5.64233 | 15420 ft | 330 kts | 70° |
| 2026-04-20 20:47 | 54.79054 | -5.60502 | 16170 ft | 335 kts | 70° |
| 2026-04-20 20:47 | 54.79861 | -5.56670 | 16858 ft | 340 kts | 70° |
| 2026-04-20 20:47 | 54.80667 | -5.52829 | 17239 ft | 343 kts | 70° |
| 2026-04-20 20:48 | 54.81477 | -5.48970 | 17313 ft | 343 kts | 70° |
| 2026-04-20 20:48 | 54.82285 | -5.45115 | 17315 ft | 342 kts | 70° |
| 2026-04-20 20:48 | 54.83096 | -5.41234 | 17317 ft | 342 kts | 71° |
| 2026-04-20 20:48 | 54.83903 | -5.37360 | 17320 ft | 342 kts | 71° |
| 2026-04-20 20:49 | 54.84707 | -5.33496 | 17321 ft | 342 kts | 71° |
| 2026-04-20 20:49 | 54.85515 | -5.29598 | 17317 ft | 342 kts | 71° |
| 2026-04-20 20:49 | 54.86322 | -5.25707 | 17322 ft | 342 kts | 71° |
| 2026-04-20 20:49 | 54.87119 | -5.21852 | 17319 ft | 342 kts | 71° |
| 2026-04-20 20:50 | 54.88071 | -5.18045 | 17314 ft | 344 kts | 59° |
| 2026-04-20 20:50 | 54.89656 | -5.14981 | 17322 ft | 347 kts | 39° |
| 2026-04-20 20:50 | 54.91724 | -5.12863 | 17327 ft | 349 kts | 28° |
| 2026-04-20 20:50 | 54.93917 | -5.11005 | 17320 ft | 349 kts | 27° |
| 2026-04-20 20:51 | 54.96078 | -5.09189 | 17317 ft | 348 kts | 27° |
| 2026-04-20 20:51 | 54.98258 | -5.07338 | 17319 ft | 348 kts | 28° |
| 2026-04-20 20:51 | 55.00425 | -5.05478 | 17317 ft | 348 kts | 28° |
| 2026-04-20 20:51 | 55.02587 | -5.03608 | 17316 ft | 348 kts | 28° |
| 2026-04-20 20:52 | 55.04747 | -5.01733 | 17317 ft | 347 kts | 28° |
| 2026-04-20 20:52 | 55.06901 | -4.99859 | 17318 ft | 347 kts | 28° |
| 2026-04-20 20:52 | 55.09053 | -4.97957 | 17319 ft | 347 kts | 31° |
| 2026-04-20 20:52 | 55.10923 | -4.95396 | 17316 ft | 343 kts | 50° |
| 2026-04-20 20:53 | 55.12209 | -4.92103 | 17323 ft | 341 kts | 65° |
| 2026-04-20 20:53 | 55.13176 | -4.88328 | 17329 ft | 340 kts | 68° |
| 2026-04-20 20:53 | 55.13895 | -4.85374 | 17327 ft | 340 kts | 68° |
| 2026-04-20 20:53 | 55.14817 | -4.81570 | 17325 ft | 340 kts | 68° |
| 2026-04-20 20:54 | 55.15750 | -4.77745 | 17328 ft | 340 kts | 68° |
| 2026-04-20 20:54 | 55.16692 | -4.73902 | 17330 ft | 340 kts | 68° |
| 2026-04-20 20:54 | 55.17457 | -4.70787 | 17325 ft | 341 kts | 68° |
| 2026-04-20 20:54 | 55.18093 | -4.68201 | 17327 ft | 340 kts | 68° |
| 2026-04-20 20:55 | 55.19027 | -4.64407 | 17321 ft | 339 kts | 68° |
| 2026-04-20 20:55 | 55.19951 | -4.60651 | 17331 ft | 338 kts | 68° |
| 2026-04-20 20:55 | 55.20875 | -4.56887 | 17339 ft | 338 kts | 68° |
| 2026-04-20 20:55 | 55.21806 | -4.53096 | 17330 ft | 338 kts | 68° |
| 2026-04-20 20:56 | 55.22731 | -4.49322 | 17327 ft | 337 kts | 68° |
| 2026-04-20 20:56 | 55.23647 | -4.45579 | 17331 ft | 337 kts | 68° |
| 2026-04-20 20:56 | 55.24574 | -4.41779 | 17324 ft | 338 kts | 68° |
| 2026-04-20 20:56 | 55.25486 | -4.38037 | 17323 ft | 338 kts | 68° |
| 2026-04-20 20:57 | 55.26414 | -4.34224 | 17316 ft | 338 kts | 69° |
| 2026-04-20 20:57 | 55.27295 | -4.30595 | 17327 ft | 339 kts | 69° |
| 2026-04-20 20:57 | 55.28194 | -4.26891 | 17325 ft | 338 kts | 69° |
| 2026-04-20 20:57 | 55.29108 | -4.23114 | 17325 ft | 338 kts | 68° |
| 2026-04-20 20:58 | 55.30025 | -4.19323 | 17338 ft | 338 kts | 68° |
| 2026-04-20 20:58 | 55.30939 | -4.15535 | 17343 ft | 338 kts | 68° |
| 2026-04-20 20:58 | 55.31862 | -4.11707 | 17339 ft | 337 kts | 68° |
| 2026-04-20 20:58 | 55.32761 | -4.07967 | 17343 ft | 337 kts | 68° |
| 2026-04-20 20:59 | 55.33664 | -4.04206 | 17350 ft | 336 kts | 68° |
| 2026-04-20 20:59 | 55.34571 | -4.00422 | 17188 ft | 336 kts | 68° |
| 2026-04-20 20:59 | 55.35469 | -3.96670 | 16930 ft | 333 kts | 68° |
| 2026-04-20 20:59 | 55.36374 | -3.92881 | 16663 ft | 332 kts | 68° |
| 2026-04-20 21:00 | 55.37250 | -3.89209 | 16409 ft | 330 kts | 68° |
| 2026-04-20 21:00 | 55.38132 | -3.85499 | 16144 ft | 329 kts | 69° |
| 2026-04-20 21:00 | 55.39009 | -3.81803 | 15882 ft | 328 kts | 68° |
| 2026-04-20 21:00 | 55.39890 | -3.78084 | 15617 ft | 327 kts | 68° |
| 2026-04-20 21:01 | 55.40752 | -3.74435 | 15358 ft | 326 kts | 68° |
| 2026-04-20 21:01 | 55.41620 | -3.70760 | 15097 ft | 324 kts | 68° |
| 2026-04-20 21:01 | 55.42476 | -3.67128 | 14838 ft | 323 kts | 68° |
| 2026-04-20 21:01 | 55.43337 | -3.63476 | 14572 ft | 321 kts | 68° |
| 2026-04-20 21:02 | 55.44189 | -3.59854 | 14310 ft | 320 kts | 68° |
| 2026-04-20 21:02 | 55.45036 | -3.56246 | 14033 ft | 318 kts | 68° |
| 2026-04-20 21:02 | 55.45865 | -3.52707 | 13551 ft | 313 kts | 68° |
| 2026-04-20 21:02 | 55.46681 | -3.49236 | 13048 ft | 301 kts | 68° |
| 2026-04-20 21:03 | 55.47474 | -3.45888 | 12554 ft | 289 kts | 68° |
| 2026-04-20 21:03 | 55.48231 | -3.42696 | 12060 ft | 279 kts | 68° |
| 2026-04-20 21:03 | 55.48962 | -3.39606 | 11566 ft | 270 kts | 68° |
| 2026-04-20 21:03 | 55.49682 | -3.36622 | 11071 ft | 262 kts | 63° |
| 2026-04-20 21:04 | 55.50767 | -3.34251 | 10578 ft | 258 kts | 37° |
| 2026-04-20 21:04 | 55.52426 | -3.33066 | 10074 ft | 257 kts | 8° |
| 2026-04-20 21:04 | 55.54173 | -3.33481 | 9579 ft | 257 kts | 340° |
| 2026-04-20 21:04 | 55.55735 | -3.34926 | 9099 ft | 256 kts | 332° |
| 2026-04-20 21:05 | 55.57259 | -3.36614 | 8602 ft | 256 kts | 330° |
| 2026-04-20 21:05 | 55.58736 | -3.38313 | 8110 ft | 254 kts | 330° |
| 2026-04-20 21:05 | 55.60193 | -3.40008 | 7623 ft | 250 kts | 330° |
| 2026-04-20 21:05 | 55.61636 | -3.41697 | 7378 ft | 244 kts | 330° |
| 2026-04-20 21:06 | 55.63036 | -3.43342 | 7375 ft | 246 kts | 330° |
| 2026-04-20 21:06 | 55.64467 | -3.45024 | 7379 ft | 247 kts | 330° |
| 2026-04-20 21:06 | 55.65912 | -3.46733 | 7384 ft | 248 kts | 330° |
| 2026-04-20 21:06 | 55.67326 | -3.48415 | 7379 ft | 248 kts | 330° |
| 2026-04-20 21:07 | 55.68763 | -3.50128 | 7371 ft | 247 kts | 330° |
| 2026-04-20 21:07 | 55.70185 | -3.51825 | 7313 ft | 247 kts | 330° |
| 2026-04-20 21:07 | 55.71604 | -3.53523 | 6941 ft | 250 kts | 330° |
| 2026-04-20 21:07 | 55.73062 | -3.55269 | 6545 ft | 252 kts | 330° |
| 2026-04-20 21:08 | 55.74503 | -3.57000 | 6159 ft | 253 kts | 330° |
| 2026-04-20 21:08 | 55.75973 | -3.58770 | 5772 ft | 254 kts | 330° |
| 2026-04-20 21:08 | 55.77425 | -3.60520 | 5396 ft | 255 kts | 330° |
| 2026-04-20 21:08 | 55.78890 | -3.62291 | 5010 ft | 256 kts | 330° |
| 2026-04-20 21:09 | 55.80371 | -3.64084 | 4623 ft | 257 kts | 330° |
| 2026-04-20 21:09 | 55.81846 | -3.65866 | 4238 ft | 257 kts | 330° |
| 2026-04-20 21:09 | 55.83368 | -3.67039 | 3874 ft | 249 kts | 356° |
| 2026-04-20 21:09 | 55.85009 | -3.66757 | 3603 ft | 233 kts | 27° |
| 2026-04-20 21:10 | 55.85955 | -3.65668 | 3424 ft | 223 kts | 49° |
| 2026-04-20 21:10 | 55.86617 | -3.63734 | 3225 ft | 213 kts | 71° |
| 2026-04-20 21:10 | 55.87132 | -3.61145 | 2968 ft | 209 kts | 69° |
| 2026-04-20 21:10 | 55.87731 | -3.58810 | 2721 ft | 207 kts | 64° |
| 2026-04-20 21:11 | 55.88437 | -3.56633 | 2471 ft | 204 kts | 60° |
| 2026-04-20 21:11 | 55.89166 | -3.54524 | 2205 ft | 190 kts | 60° |
| 2026-04-20 21:11 | 55.89827 | -3.52593 | 1957 ft | 177 kts | 61° |
| 2026-04-20 21:11 | 55.90425 | -3.50818 | 1818 ft | 158 kts | 61° |
| 2026-04-20 21:12 | 55.90964 | -3.49213 | 1592 ft | 143 kts | 62° |
| 2026-04-20 21:12 | 55.91450 | -3.47767 | 1353 ft | 130 kts | 61° |
| 2026-04-20 21:12 | 55.91895 | -3.46445 | 1155 ft | 122 kts | 61° |
| 2026-04-20 21:12 | 55.92329 | -3.45155 | 1000 ft | 121 kts | 61° |
| 2026-04-20 21:13 | 55.92759 | -3.43879 | 848 ft | 121 kts | 60° |
| 2026-04-20 21:13 | 55.93193 | -3.42592 | 689 ft | 121 kts | 60° |
| 2026-04-20 21:13 | 55.93630 | -3.41309 | 520 ft | 120 kts | 59° |
| 2026-04-20 21:13 | 55.94060 | -3.40045 | 355 ft | 119 kts | 60° |
| 2026-04-20 21:14 | 55.94481 | -3.38778 | 184 ft | 118 kts | 59° |
| 2026-04-20 21:14 | 55.94830 | -3.37742 | 142 ft | 62 kts | 58° |
| 2026-04-20 21:14 | 55.95038 | -3.37126 | 142 ft | 54 kts | 58° |
| 2026-04-20 21:14 | 55.95207 | -3.36631 | 142 ft | 36 kts | 58° |
| 2026-04-20 21:15 | 55.95245 | -3.36430 | 142 ft | 7 kts | 129° |
| 2026-04-20 21:15 | 55.95205 | -3.36364 | 142 ft | 8 kts | 143° |
| 2026-04-20 21:15 | 55.95154 | -3.36298 | 142 ft | 9 kts | 131° |
| 2026-04-20 21:15 | 55.95127 | -3.36179 | 142 ft | 10 kts | 107° |
| 2026-04-20 21:16 | 55.95101 | -3.36044 | 142 ft | 12 kts | 108° |
| 2026-04-20 21:16 | 55.95066 | -3.35902 | 142 ft | 13 kts | 118° |
| 2026-04-20 21:16 | 55.95002 | -3.35846 | 142 ft | 11 kts | 203° |
| 2026-04-20 21:16 | 55.94926 | -3.35836 | 142 ft | 12 kts | 135° |
| 2026-04-20 21:17 | 55.94899 | -3.35766 | 142 ft | 4 kts | 148° |
| 2026-04-20 21:17 | 55.94867 | -3.35777 | 142 ft | 5 kts | 206° |
| 2026-04-20 21:17 | 55.94840 | -3.35802 | 142 ft | 0 kts | 207° |
| 2026-04-20 21:17 | 55.94831 | -3.35811 | 142 ft | 2 kts | 210° |
| 2026-04-20 21:18 | 55.94832 | -3.35811 | 142 ft | 0 kts | 210° |